Time;durP1;ratioP1;P1;durP2;ratioP2;P2;SDS_P1;SDS_P2;PMS_P1;PMS_P2;Temp;Humidity;BMP_temperature;BMP_pressure;BME280_temperature;BME280_humidity;BME280_pressure;Samples;Min_cycle;Max_cycle;Signal;HPM_P1;HPM_P2
2023/03/23 00:03:28;;;;;;;7.40;4.43;;;;;;;;;;12865837;23;20016;-74
2023/03/23 00:08:29;;;;;;;7.70;4.80;;;;;;;;;;12863787;23;20020;-74
2023/03/23 00:13:29;;;;;;;5.75;4.78;;;;;;;;;;12891156;22;20372;-75
2023/03/23 00:18:29;;;;;;;5.88;4.57;;;;;;;;;;12866187;23;20493;-76
2023/03/23 00:23:30;;;;;;;6.67;4.87;;;;;;;;;;12865132;22;20012;-76
2023/03/23 00:28:30;;;;;;;6.53;4.35;;;;;;;;;;12864408;23;20281;-74
2023/03/23 00:33:37;;;;;;;8.50;4.88;;;;;;;;;;12891079;22;20016;-74
2023/03/23 00:38:39;;;;;;;6.07;4.68;;;;;;;;;;12894837;22;20020;-74
2023/03/23 00:43:40;;;;;;;6.90;5.00;;;;;;;;;;12844429;23;20031;-75
2023/03/23 00:48:44;;;;;;;7.22;4.97;;;;;;;;;;12895992;22;20016;-77
2023/03/23 00:53:46;;;;;;;6.97;4.72;;;;;;;;;;12897085;23;20389;-75
2023/03/23 00:58:46;;;;;;;6.32;4.70;;;;;;;;;;12868170;23;20019;-75
2023/03/23 01:03:46;;;;;;;7.78;5.03;;;;;;;;;;12896106;22;20019;-76
2023/03/23 01:08:47;;;;;;;7.37;4.93;;;;;;;;;;12894642;23;20008;-75
2023/03/23 01:13:47;;;;;;;7.13;5.93;;;;;;;;;;12872075;23;20259;-77
2023/03/23 01:18:49;;;;;;;6.47;5.20;;;;;;;;;;12903516;23;20387;-76
2023/03/23 01:23:50;;;;;;;7.05;4.90;;;;;;;;;;12902907;23;20028;-76
2023/03/23 01:28:50;;;;;;;7.85;5.28;;;;;;;;;;12845365;23;20393;-77
2023/03/23 01:33:51;;;;;;;6.80;5.05;;;;;;;;;;12868630;23;20107;-76
2023/03/23 01:38:53;;;;;;;7.78;4.75;;;;;;;;;;12867562;23;20322;-79
2023/03/23 01:44:04;;;;;;;5.68;4.53;;;;;;;;;;12876059;23;20054;-78
2023/03/23 01:49:18;;;;;;;8.20;5.13;;;;;;;;;;12877741;23;20016;-76
2023/03/23 01:54:26;;;;;;;5.43;4.90;;;;;;;;;;12877715;23;20022;-76
2023/03/23 01:59:29;;;;;;;5.30;4.80;;;;;;;;;;12902854;23;20048;-74
2023/03/23 02:04:51;;;;;;;6.03;4.90;;;;;;;;;;12877519;23;20093;-77
2023/03/23 02:09:54;;;;;;;5.07;4.57;;;;;;;;;;12902533;23;20012;-77
2023/03/23 02:14:56;;;;;;;6.60;4.55;;;;;;;;;;12874222;23;20074;-77
2023/03/23 02:20:06;;;;;;;5.72;4.53;;;;;;;;;;12873986;23;20082;-78
2023/03/23 02:25:10;;;;;;;4.50;3.95;;;;;;;;;;12901623;23;20015;-76
2023/03/23 02:30:11;;;;;;;4.75;4.03;;;;;;;;;;12875713;23;20858;-75
2023/03/23 02:35:35;;;;;;;4.63;3.53;;;;;;;;;;12902498;22;20008;-77
2023/03/23 02:40:40;;;;;;;4.72;3.90;;;;;;;;;;12874543;23;20435;-75
2023/03/23 02:45:42;;;;;;;4.32;3.60;;;;;;;;;;12901669;23;20012;-75
2023/03/23 02:50:45;;;;;;;4.03;3.20;;;;;;;;;;12902184;23;20333;-75
2023/03/23 02:55:48;;;;;;;5.45;2.90;;;;;;;;;;12874343;23;20012;-75
2023/03/23 03:00:53;;;;;;;2.70;2.50;;;;;;;;;;12875401;23;20135;-76
2023/03/23 03:06:04;;;;;;;5.45;3.10;;;;;;;;;;12902224;23;20032;-78
2023/03/23 03:11:11;;;;;;;3.35;2.50;;;;;;;;;;12875294;23;20016;-75
2023/03/23 03:16:15;;;;;;;3.42;2.72;;;;;;;;;;12874753;23;20020;-75
2023/03/23 03:21:20;;;;;;;3.90;2.83;;;;;;;;;;12876082;23;20085;-74
2023/03/23 03:26:26;;;;;;;3.72;2.50;;;;;;;;;;12876853;23;20023;-75
2023/03/23 03:31:38;;;;;;;2.78;2.15;;;;;;;;;;12874629;23;20091;-75
2023/03/23 03:36:40;;;;;;;2.97;2.25;;;;;;;;;;12901068;23;20054;-75
2023/03/23 03:41:44;;;;;;;3.88;2.53;;;;;;;;;;12874979;23;20030;-76
2023/03/23 03:46:45;;;;;;;3.05;2.58;;;;;;;;;;12872572;23;20340;-75
2023/03/23 03:51:45;;;;;;;3.30;2.28;;;;;;;;;;12872711;23;20131;-74
2023/03/23 03:56:57;;;;;;;3.55;2.45;;;;;;;;;;12872838;23;20092;-77
2023/03/23 04:02:21;;;;;;;2.60;2.40;;;;;;;;;;12836218;23;20152;-74
2023/03/23 04:07:26;;;;;;;2.88;2.40;;;;;;;;;;12871840;23;20035;-74
2023/03/23 04:12:26;;;;;;;2.63;2.42;;;;;;;;;;12877518;23;20089;-75
2023/03/23 04:17:30;;;;;;;2.22;2.00;;;;;;;;;;12882169;23;20016;-76
2023/03/23 04:22:31;;;;;;;5.32;2.60;;;;;;;;;;12909057;23;20096;-76
2023/03/23 04:27:34;;;;;;;3.97;2.20;;;;;;;;;;12880109;23;20089;-75
2023/03/23 04:32:40;;;;;;;3.13;2.17;;;;;;;;;;12879449;23;20019;-75
2023/03/23 04:37:41;;;;;;;2.60;2.40;;;;;;;;;;12878474;23;20220;-75
2023/03/23 04:42:46;;;;;;;2.83;2.20;;;;;;;;;;12853191;23;20531;-74
2023/03/23 04:47:57;;;;;;;3.53;2.60;;;;;;;;;;12908067;23;20135;-75
2023/03/23 04:53:04;;;;;;;3.08;2.42;;;;;;;;;;12905143;23;20019;-75
2023/03/23 04:58:06;;;;;;;2.75;2.17;;;;;;;;;;12878027;23;20020;-77
2023/03/23 05:03:19;;;;;;;2.57;2.30;;;;;;;;;;12855170;23;20012;-75
2023/03/23 05:08:20;;;;;;;2.92;2.50;;;;;;;;;;12877941;23;20012;-75
2023/03/23 05:13:21;;;;;;;4.68;2.40;;;;;;;;;;12877294;23;20048;-74
2023/03/23 05:18:26;;;;;;;2.35;2.03;;;;;;;;;;12878707;23;20086;-76
2023/03/23 05:23:26;;;;;;;4.43;2.17;;;;;;;;;;12880062;23;20522;-76
2023/03/23 05:28:37;;;;;;;2.80;2.28;;;;;;;;;;12855313;23;20039;-78
2023/03/23 05:33:47;;;;;;;4.63;2.30;;;;;;;;;;12883047;23;20456;-77
2023/03/23 05:38:51;;;;;;;3.33;2.42;;;;;;;;;;12858277;23;20115;-78
2023/03/23 05:43:52;;;;;;;4.13;2.50;;;;;;;;;;12892324;23;20468;-75
2023/03/23 05:49:07;;;;;;;4.80;3.03;;;;;;;;;;12895288;23;20027;-77
2023/03/23 05:54:13;;;;;;;3.15;2.63;;;;;;;;;;12882203;23;20095;-76
2023/03/23 05:59:15;;;;;;;3.77;2.10;;;;;;;;;;12880131;23;20050;-75
2023/03/23 06:04:18;;;;;;;3.33;2.72;;;;;;;;;;12910581;23;20035;-75
2023/03/23 06:09:30;;;;;;;3.33;2.50;;;;;;;;;;12888546;23;20016;-74
2023/03/23 06:14:51;;;;;;;3.33;3.03;;;;;;;;;;12924375;23;20046;-75
2023/03/23 06:19:57;;;;;;;3.28;2.42;;;;;;;;;;12875089;23;20028;-79
2023/03/23 06:24:58;;;;;;;6.25;2.58;;;;;;;;;;12880539;23;20437;-75
2023/03/23 06:30:07;;;;;;;2.97;2.28;;;;;;;;;;12881361;22;20031;-75
2023/03/23 06:35:09;;;;;;;6.50;2.83;;;;;;;;;;12892004;23;20012;-74
2023/03/23 06:40:46;;;;;;;4.03;2.65;;;;;;;;;;12910357;22;20115;-74
2023/03/23 06:45:48;;;;;;;3.55;2.33;;;;;;;;;;12864547;22;20004;-74
2023/03/23 06:51:07;;;;;;;3.67;2.40;;;;;;;;;;12903511;22;20464;-74
2023/03/23 06:56:13;;;;;;;4.75;2.40;;;;;;;;;;12884354;23;20014;-78
2023/03/23 07:01:17;;;;;;;4.47;2.28;;;;;;;;;;12910114;23;20428;-76
2023/03/23 07:06:26;;;;;;;4.05;2.70;;;;;;;;;;12903401;23;20012;-76
2023/03/23 07:11:32;;;;;;;5.03;2.40;;;;;;;;;;12875978;23;20027;-76
2023/03/23 07:16:39;;;;;;;4.78;3.58;;;;;;;;;;12876862;23;20015;-76
2023/03/23 07:21:40;;;;;;;3.28;2.30;;;;;;;;;;12849537;23;20028;-76
2023/03/23 07:26:44;;;;;;;5.00;3.15;;;;;;;;;;12876321;23;20012;-77
2023/03/23 07:31:47;;;;;;;2.67;2.42;;;;;;;;;;12875035;23;20016;-76
2023/03/23 07:36:49;;;;;;;4.03;2.88;;;;;;;;;;12848205;23;20380;-75
2023/03/23 07:41:51;;;;;;;4.07;2.60;;;;;;;;;;12876475;23;20121;-78
2023/03/23 07:47:07;;;;;;;3.80;2.78;;;;;;;;;;12852725;23;20099;-76
2023/03/23 07:52:10;;;;;;;6.50;3.90;;;;;;;;;;12899839;23;20012;-74
2023/03/23 07:57:12;;;;;;;5.75;4.20;;;;;;;;;;12848208;23;20008;-77
2023/03/23 08:02:16;;;;;;;7.03;3.95;;;;;;;;;;12873811;23;20020;-76
2023/03/23 08:07:47;;;;;;;4.45;3.80;;;;;;;;;;12871417;22;20686;-75
2023/03/23 08:13:09;;;;;;;4.50;4.00;;;;;;;;;;12875481;23;20020;-75
2023/03/23 08:18:26;;;;;;;4.55;3.28;;;;;;;;;;12850360;23;20790;-75
2023/03/23 08:23:49;;;;;;;5.40;3.47;;;;;;;;;;12888623;23;20118;-74
2023/03/23 08:29:14;;;;;;;5.43;3.67;;;;;;;;;;12843919;23;20016;-74
2023/03/23 08:34:32;;;;;;;4.38;3.40;;;;;;;;;;12871767;23;20024;-74
2023/03/23 08:39:59;;;;;;;4.40;3.65;;;;;;;;;;12875269;23;20031;-74
2023/03/23 08:44:59;;;;;;;4.72;3.45;;;;;;;;;;12906260;23;20436;-75
2023/03/23 08:50:15;;;;;;;3.40;2.85;;;;;;;;;;12875927;23;20167;-74
2023/03/23 08:55:40;;;;;;;3.53;2.85;;;;;;;;;;12863974;23;20449;-78
2023/03/23 09:00:49;;;;;;;6.10;3.15;;;;;;;;;;12905101;23;20094;-75
2023/03/23 09:06:04;;;;;;;3.10;2.80;;;;;;;;;;12878942;23;20325;-74
2023/03/23 09:11:17;;;;;;;6.40;3.15;;;;;;;;;;12878026;22;20011;-76
2023/03/23 09:16:18;;;;;;;6.75;3.40;;;;;;;;;;12850309;23;20043;-74
2023/03/23 09:21:19;;;;;;;4.60;3.33;;;;;;;;;;12849228;23;20078;-75
2023/03/23 09:26:19;;;;;;;4.82;2.83;;;;;;;;;;12874378;23;20012;-75
2023/03/23 09:31:20;;;;;;;3.58;2.92;;;;;;;;;;12874346;23;20016;-75
2023/03/23 09:36:21;;;;;;;3.35;2.85;;;;;;;;;;12901635;22;20492;-75
2023/03/23 09:41:21;;;;;;;3.05;2.75;;;;;;;;;;12902358;23;20106;-76
2023/03/23 09:46:36;;;;;;;3.33;3.00;;;;;;;;;;12901847;23;20011;-75
2023/03/23 09:51:54;;;;;;;4.57;3.28;;;;;;;;;;12874888;22;20609;-76
2023/03/23 09:56:58;;;;;;;3.70;2.50;;;;;;;;;;12901698;23;20086;-77
2023/03/23 10:02:12;;;;;;;5.30;3.17;;;;;;;;;;12901388;23;20440;-76
2023/03/23 10:07:25;;;;;;;5.22;3.22;;;;;;;;;;12901877;23;20012;-76
2023/03/23 10:12:25;;;;;;;4.93;3.08;;;;;;;;;;12902552;23;20015;-76
2023/03/23 10:17:31;;;;;;;4.20;3.17;;;;;;;;;;12907483;23;20733;-75
2023/03/23 10:22:33;;;;;;;4.95;3.20;;;;;;;;;;12875938;23;20099;-78
2023/03/23 10:27:38;;;;;;;4.57;2.97;;;;;;;;;;12902763;23;20843;-78
2023/03/23 10:32:49;;;;;;;4.05;2.88;;;;;;;;;;12904577;22;20434;-80
2023/03/23 10:38:17;;;;;;;4.72;3.10;;;;;;;;;;12902416;23;20464;-78
2023/03/23 10:43:23;;;;;;;5.35;2.90;;;;;;;;;;12871713;23;20470;-76
2023/03/23 10:48:24;;;;;;;;;;;;;;;;;;12877956;23;20375;-77
2023/03/23 10:53:32;;;;;;;3.78;3.10;;;;;;;;;;12879183;23;19911;-77
2023/03/23 10:58:35;;;;;;;3.33;2.50;;;;;;;;;;12858370;23;20020;-77
2023/03/23 11:03:41;;;;;;;2.70;2.00;;;;;;;;;;12875863;23;20039;-76
2023/03/23 11:09:07;;;;;;;2.33;1.90;;;;;;;;;;12848763;22;20046;-77
2023/03/23 11:14:20;;;;;;;2.88;1.88;;;;;;;;;;12896203;22;20016;-76
2023/03/23 11:19:28;;;;;;;4.93;3.65;;;;;;;;;;12904142;23;20078;-78
2023/03/23 11:24:28;;;;;;;2.63;1.90;;;;;;;;;;12880973;23;20461;-76
2023/03/23 11:29:30;;;;;;;2.08;1.77;;;;;;;;;;12903871;23;20036;-76
2023/03/23 11:34:35;;;;;;;2.28;1.90;;;;;;;;;;12886535;23;20060;-77
2023/03/23 11:39:45;;;;;;;2.67;2.00;;;;;;;;;;12930457;23;20372;-78
2023/03/23 11:44:46;;;;;;;3.15;1.85;;;;;;;;;;12919735;22;20106;-77
2023/03/23 11:50:05;;;;;;;2.85;2.10;;;;;;;;;;12901020;23;20015;-78
2023/03/23 11:55:09;;;;;;;3.78;1.77;;;;;;;;;;12875513;23;20113;-78
2023/03/23 12:00:14;;;;;;;1.92;1.73;;;;;;;;;;12874346;23;20024;-77
2023/03/23 12:05:33;;;;;;;1.85;1.67;;;;;;;;;;12873435;23;20027;-78
2023/03/23 12:10:39;;;;;;;3.22;1.98;;;;;;;;;;12900957;23;20091;-78
2023/03/23 12:15:53;;;;;;;3.22;2.70;;;;;;;;;;12901926;23;20016;-76
2023/03/23 12:21:06;;;;;;;3.22;2.08;;;;;;;;;;12905660;23;20039;-78
2023/03/23 12:26:06;;;;;;;2.23;1.40;;;;;;;;;;12882319;23;20055;-77
2023/03/23 12:31:30;;;;;;;3.47;2.03;;;;;;;;;;12880386;23;20394;-79
2023/03/23 12:36:56;;;;;;;2.78;1.77;;;;;;;;;;12904670;23;20191;-79
2023/03/23 12:41:59;;;;;;;3.45;1.80;;;;;;;;;;12897269;23;20024;-79
2023/03/23 12:47:20;;;;;;;1.75;1.65;;;;;;;;;;12876330;23;20020;-79
2023/03/23 12:52:26;;;;;;;2.33;1.60;;;;;;;;;;12852534;23;20019;-78
2023/03/23 12:57:51;;;;;;;3.47;1.80;;;;;;;;;;12874802;23;20016;-77
2023/03/23 13:03:12;;;;;;;1.50;1.40;;;;;;;;;;12906466;23;20062;-82
2023/03/23 13:08:20;;;;;;;1.60;1.50;;;;;;;;;;12910111;22;20062;-77
2023/03/23 13:13:27;;;;;;;2.38;1.60;;;;;;;;;;12909666;22;20008;-79
2023/03/23 13:18:59;;;;;;;2.22;1.40;;;;;;;;;;12857439;23;20051;-83
2023/03/23 13:24:08;;;;;;;3.55;1.58;;;;;;;;;;12923693;22;20016;-82
2023/03/23 13:29:24;;;;;;;1.70;1.60;;;;;;;;;;12942875;23;20008;-79
2023/03/23 13:34:29;;;;;;;1.77;1.45;;;;;;;;;;12937059;23;20015;-81
2023/03/23 13:39:55;;;;;;;1.60;1.38;;;;;;;;;;12921601;23;20024;-83
2023/03/23 13:45:05;;;;;;;2.40;1.63;;;;;;;;;;12907125;23;20071;-85
2023/03/23 13:50:06;;;;;;;3.33;2.30;;;;;;;;;;12918425;22;20032;-79
2023/03/23 13:55:17;;;;;;;1.52;1.42;;;;;;;;;;12908324;23;20060;-79
2023/03/23 14:00:32;;;;;;;2.95;1.80;;;;;;;;;;12906097;23;20326;-80
2023/03/23 14:06:01;;;;;;;2.58;2.10;;;;;;;;;;12902843;23;20091;-79
2023/03/23 14:11:13;;;;;;;2.65;1.80;;;;;;;;;;12874355;22;20027;-75
2023/03/23 14:16:15;;;;;;;3.35;1.80;;;;;;;;;;12869514;23;20023;-76
2023/03/23 14:21:21;;;;;;;2.50;1.83;;;;;;;;;;12868114;23;20016;-76
2023/03/23 14:26:22;;;;;;;3.58;2.08;;;;;;;;;;12872739;23;20070;-80
2023/03/23 14:31:24;;;;;;;2.10;1.75;;;;;;;;;;12869163;23;20016;-77
2023/03/23 14:36:29;;;;;;;2.42;1.75;;;;;;;;;;12846900;23;20020;-81
2023/03/23 14:41:33;;;;;;;2.90;2.05;;;;;;;;;;12902657;23;20024;-82
2023/03/23 14:46:33;;;;;;;3.53;2.00;;;;;;;;;;12871974;23;20451;-76
2023/03/23 14:51:35;;;;;;;3.42;2.00;;;;;;;;;;12875592;23;20016;-78
2023/03/23 14:56:36;;;;;;;3.85;2.38;;;;;;;;;;12896253;22;20012;-79
2023/03/23 15:01:39;;;;;;;2.13;1.92;;;;;;;;;;12896706;23;20437;-80
2023/03/23 15:06:40;;;;;;;2.50;2.10;;;;;;;;;;12906496;22;20062;-80
2023/03/23 15:12:04;;;;;;;6.95;2.28;;;;;;;;;;12917808;23;21126;-80
2023/03/23 15:17:10;;;;;;;3.83;2.20;;;;;;;;;;12897750;23;20536;-78
2023/03/23 15:22:29;;;;;;;2.65;2.30;;;;;;;;;;12894231;23;20023;-77
2023/03/23 15:27:33;;;;;;;2.45;2.15;;;;;;;;;;12867003;23;20027;-80
2023/03/23 15:32:39;;;;;;;2.42;2.13;;;;;;;;;;12867663;22;20008;-82
2023/03/23 15:37:43;;;;;;;2.42;1.95;;;;;;;;;;12841607;22;20259;-78
2023/03/23 15:42:45;;;;;;;3.50;2.30;;;;;;;;;;12895333;23;20012;-81
2023/03/23 15:47:47;;;;;;;2.60;2.22;;;;;;;;;;12841040;23;20019;-81
2023/03/23 15:52:51;;;;;;;5.75;3.53;;;;;;;;;;12867400;23;20012;-83
2023/03/23 15:57:57;;;;;;;4.10;3.03;;;;;;;;;;12842799;23;20801;-79
2023/03/23 16:02:59;;;;;;;;;;;;;;;;;;12893535;23;20020;-82
2023/03/23 16:08:02;;;;;;;2.95;2.13;;;;;;;;;;12871293;22;19989;-79
2023/03/23 16:13:04;;;;;;;3.17;2.17;;;;;;;;;;12894008;23;20012;-77
2023/03/23 16:18:04;;;;;;;20.23;12.37;;;;;;;;;;12864880;23;20016;-77
2023/03/23 16:23:04;;;;;;;5.07;3.35;;;;;;;;;;12893617;23;20016;-82
2023/03/23 16:28:08;;;;;;;2.83;2.08;;;;;;;;;;12890196;22;20083;-77
2023/03/23 16:33:09;;;;;;;4.40;2.30;;;;;;;;;;12857837;22;20012;-76
2023/03/23 16:38:11;;;;;;;2.97;2.00;;;;;;;;;;12887835;23;20016;-76
2023/03/23 16:43:12;;;;;;;3.07;2.47;;;;;;;;;;12861269;23;20255;-76
2023/03/23 16:48:15;;;;;;;3.60;2.53;;;;;;;;;;12889227;23;20247;-83
2023/03/23 16:53:19;;;;;;;5.22;2.58;;;;;;;;;;12893865;22;20008;-79
2023/03/23 16:58:20;;;;;;;3.63;2.60;;;;;;;;;;12894073;23;20020;-81
2023/03/23 17:03:22;;;;;;;3.38;2.80;;;;;;;;;;12845960;22;20020;-78
2023/03/23 17:08:23;;;;;;;4.07;3.00;;;;;;;;;;12895474;23;20088;-80
2023/03/23 17:13:26;;;;;;;4.07;2.73;;;;;;;;;;12899423;23;20008;-76
2023/03/23 17:18:28;;;;;;;4.80;3.55;;;;;;;;;;12865453;23;20016;-77
2023/03/23 17:23:31;;;;;;;4.93;3.30;;;;;;;;;;12888707;23;20060;-77
2023/03/23 17:28:32;;;;;;;6.03;3.40;;;;;;;;;;12898987;23;20066;-80
2023/03/23 17:33:34;;;;;;;4.88;3.50;;;;;;;;;;12896164;23;20039;-78
2023/03/23 17:38:38;;;;;;;4.45;3.70;;;;;;;;;;12872927;23;20028;-83
2023/03/23 17:43:39;;;;;;;4.78;3.60;;;;;;;;;;12899711;23;20065;-81
2023/03/23 17:48:40;;;;;;;12.88;8.48;;;;;;;;;;12909075;22;20318;-80
2023/03/23 17:53:42;;;;;;;14.07;9.15;;;;;;;;;;12858705;23;20009;-78
2023/03/23 17:58:43;;;;;;;9.48;6.43;;;;;;;;;;12847613;22;20345;-79
2023/03/23 18:03:43;;;;;;;5.60;4.85;;;;;;;;;;12875867;23;20071;-82
2023/03/23 18:08:44;;;;;;;5.80;4.20;;;;;;;;;;12929738;23;20019;-78
2023/03/23 18:13:44;;;;;;;6.68;4.97;;;;;;;;;;12868803;23;20103;-78
2023/03/23 18:18:48;;;;;;;6.95;5.38;;;;;;;;;;12866732;23;20027;-79
2023/03/23 18:23:49;;;;;;;7.18;5.57;;;;;;;;;;12865958;23;20043;-78
2023/03/23 18:28:50;;;;;;;8.57;6.28;;;;;;;;;;12864590;23;20055;-80
2023/03/23 18:33:53;;;;;;;7.47;5.63;;;;;;;;;;12897484;23;20012;-78
2023/03/23 18:38:55;;;;;;;7.60;5.50;;;;;;;;;;12866913;23;20056;-79
2023/03/23 18:43:55;;;;;;;5.70;5.13;;;;;;;;;;12892636;23;20004;-79
2023/03/23 18:48:56;;;;;;;8.02;6.20;;;;;;;;;;12891772;23;20018;-76
2023/03/23 18:53:57;;;;;;;9.47;6.80;;;;;;;;;;12866457;23;20008;-79
2023/03/23 18:58:57;;;;;;;10.17;7.63;;;;;;;;;;12864579;23;20258;-77
2023/03/23 19:03:57;;;;;;;9.27;6.15;;;;;;;;;;12872487;23;20815;-79
2023/03/23 19:09:00;;;;;;;8.77;7.13;;;;;;;;;;12890131;23;20016;-81
2023/03/23 19:14:03;;;;;;;10.23;6.95;;;;;;;;;;12890796;23;20012;-78
2023/03/23 19:19:07;;;;;;;9.45;7.35;;;;;;;;;;12895294;23;20020;-79
2023/03/23 19:24:07;;;;;;;8.00;5.53;;;;;;;;;;12901568;23;20019;-76
2023/03/23 19:29:12;;;;;;;7.80;5.78;;;;;;;;;;12890022;23;20428;-79
2023/03/23 19:34:13;;;;;;;8.48;5.75;;;;;;;;;;12888941;22;20012;-78
2023/03/23 19:39:13;;;;;;;6.35;5.25;;;;;;;;;;12887926;23;20341;-79
2023/03/23 19:44:14;;;;;;;6.40;4.67;;;;;;;;;;12890818;23;20792;-79
2023/03/23 19:49:14;;;;;;;6.13;4.57;;;;;;;;;;12866253;23;20616;-79
2023/03/23 19:54:15;;;;;;;6.65;5.22;;;;;;;;;;12897235;23;20008;-79
2023/03/23 19:59:15;;;;;;;5.35;4.60;;;;;;;;;;12891214;23;20028;-79
2023/03/23 20:04:20;;;;;;;5.95;4.93;;;;;;;;;;12893970;23;20019;-77
2023/03/23 20:09:23;;;;;;;7.18;5.30;;;;;;;;;;12892349;23;20069;-80
2023/03/23 20:14:23;;;;;;;12.07;9.77;;;;;;;;;;12896406;23;20016;-77
2023/03/23 20:19:28;;;;;;;8.00;6.82;;;;;;;;;;12869702;23;20017;-78
2023/03/23 20:24:29;;;;;;;8.77;6.20;;;;;;;;;;12900050;23;20074;-79
2023/03/23 20:29:31;;;;;;;7.75;5.78;;;;;;;;;;12894037;23;20824;-76
2023/03/23 20:34:32;;;;;;;6.70;5.45;;;;;;;;;;12874278;23;20020;-79
2023/03/23 20:39:32;;;;;;;6.05;5.35;;;;;;;;;;12878145;23;20620;-80
2023/03/23 20:44:34;;;;;;;6.80;5.85;;;;;;;;;;12893406;23;20014;-79
2023/03/23 20:49:36;;;;;;;6.60;5.30;;;;;;;;;;12907592;23;20091;-77
2023/03/23 20:54:39;;;;;;;7.47;5.37;;;;;;;;;;12933268;23;20019;-77
2023/03/23 20:59:39;;;;;;;9.52;6.22;;;;;;;;;;12877479;23;20020;-76
2023/03/23 21:04:41;;;;;;;6.30;5.67;;;;;;;;;;12906486;23;20016;-79
2023/03/23 21:09:42;;;;;;;7.53;5.90;;;;;;;;;;12880021;23;20281;-78
2023/03/23 21:14:43;;;;;;;8.87;6.67;;;;;;;;;;12913316;22;20425;-78
2023/03/23 21:19:44;;;;;;;7.95;6.22;;;;;;;;;;12898137;23;20342;-76
2023/03/23 21:24:49;;;;;;;8.90;7.38;;;;;;;;;;12877810;23;20040;-75
2023/03/23 21:29:49;;;;;;;7.78;6.15;;;;;;;;;;12874474;23;20263;-77
2023/03/23 21:34:50;;;;;;;8.15;6.57;;;;;;;;;;12899935;23;20012;-75
2023/03/23 21:39:50;;;;;;;7.93;6.33;;;;;;;;;;12901637;23;20020;-76
2023/03/23 21:44:52;;;;;;;8.95;6.45;;;;;;;;;;12870066;23;20715;-76
2023/03/23 21:49:55;;;;;;;8.57;6.63;;;;;;;;;;12868680;23;20016;-78
2023/03/23 21:54:58;;;;;;;9.18;7.05;;;;;;;;;;12893800;23;20531;-78
2023/03/23 21:59:59;;;;;;;10.65;7.22;;;;;;;;;;12891985;23;20027;-81
2023/03/23 22:04:59;;;;;;;9.13;6.53;;;;;;;;;;12866460;23;20009;-77
2023/03/23 22:10:00;;;;;;;8.57;6.40;;;;;;;;;;12866442;23;20467;-80
2023/03/23 22:15:01;;;;;;;6.88;6.15;;;;;;;;;;12893474;22;20550;-77
2023/03/23 22:20:01;;;;;;;7.93;6.00;;;;;;;;;;12894606;22;20020;-78
2023/03/23 22:25:02;;;;;;;9.15;5.95;;;;;;;;;;12842342;22;20035;-77
2023/03/23 22:30:03;;;;;;;7.65;6.28;;;;;;;;;;12892057;23;20015;-78
2023/03/23 22:35:05;;;;;;;7.57;5.75;;;;;;;;;;12892059;23;20015;-77
2023/03/23 22:40:08;;;;;;;6.18;5.40;;;;;;;;;;12893118;23;20319;-80
2023/03/23 22:45:08;;;;;;;7.47;6.32;;;;;;;;;;12840600;23;20027;-79
2023/03/23 22:50:09;;;;;;;7.40;5.72;;;;;;;;;;12864213;23;20018;-76
2023/03/23 22:55:10;;;;;;;7.07;5.72;;;;;;;;;;12864704;23;20400;-78
2023/03/23 23:00:13;;;;;;;6.32;5.32;;;;;;;;;;12864911;23;20027;-80
2023/03/23 23:05:14;;;;;;;6.38;5.68;;;;;;;;;;12864612;23;20085;-76
2023/03/23 23:10:14;;;;;;;10.75;5.75;;;;;;;;;;12890625;22;20004;-77
2023/03/23 23:15:15;;;;;;;6.65;5.82;;;;;;;;;;12840322;22;20024;-76
2023/03/23 23:20:15;;;;;;;7.03;4.88;;;;;;;;;;12894793;23;20027;-77
2023/03/23 23:25:16;;;;;;;5.75;4.93;;;;;;;;;;12868330;22;20240;-76
2023/03/23 23:30:19;;;;;;;5.78;4.53;;;;;;;;;;12891362;23;20083;-77
2023/03/23 23:35:21;;;;;;;5.45;4.53;;;;;;;;;;12891754;23;20043;-76
2023/03/23 23:40:24;;;;;;;5.38;4.88;;;;;;;;;;12891604;23;20048;-79
2023/03/23 23:45:24;;;;;;;6.18;4.85;;;;;;;;;;12877012;23;20008;-77
2023/03/23 23:50:28;;;;;;;5.57;4.65;;;;;;;;;;12935477;23;20012;-78
2023/03/23 23:55:33;;;;;;;5.78;4.35;;;;;;;;;;12917357;23;20016;-76
